Time;durP1;ratioP1;P1;durP2;ratioP2;P2;SDS_P1;SDS_P2;PMS_P1;PMS_P2;Temp;Humidity;BMP_temperature;BMP_pressure;BME280_temperature;BME280_humidity;BME280_pressure;Samples;Min_cycle;Max_cycle;Signal;HPM_P1;HPM_P2
2022/08/06 00:00:11;;;;;;;14.65;2.90;;;14.70;99.90;;;13.57;100.00;101585.50;4994579;28;20022;-80
2022/08/06 00:02:37;;;;;;;15.90;2.80;;;14.70;99.90;;;13.55;100.00;101592.66;4996203;28;20026;-78
2022/08/06 00:05:03;;;;;;;;;;;14.80;99.90;;;13.47;100.00;101600.94;4995235;28;20411;-78
2022/08/06 00:07:29;;;;;;;13.75;2.08;;;14.60;99.90;;;13.42;100.00;101595.00;4979988;28;19956;-79
2022/08/06 00:10:00;;;;;;;;;;;14.70;99.90;;;13.42;100.00;101597.63;4996534;28;20564;-78
2022/08/06 00:12:31;;;;;;;9.75;1.95;;;14.60;99.90;;;13.45;100.00;101607.22;4994694;28;20008;-78
2022/08/06 00:14:57;;;;;;;14.68;2.05;;;14.70;99.90;;;13.52;100.00;101608.69;4995428;28;20037;-78
2022/08/06 00:17:25;;;;;;;13.95;1.60;;;14.70;99.90;;;13.55;100.00;101613.81;4995409;28;20495;-79
2022/08/06 00:19:51;;;;;;;4.13;1.20;;;14.70;99.90;;;13.52;100.00;101616.63;4994502;28;20447;-79
2022/08/06 00:22:17;;;;;;;9.32;1.35;;;14.70;99.90;;;13.49;100.00;101609.66;4994709;28;20054;-79
2022/08/06 00:24:43;;;;;;;;;;;16.20;99.90;;;13.41;100.00;101608.28;5013168;28;20447;-79
2022/08/06 00:27:08;;;;;;;11.55;1.15;;;14.60;99.90;;;13.38;100.00;101611.94;5017694;28;19982;-78
2022/08/06 00:29:34;;;;;;;;;;;14.60;99.90;;;13.28;100.00;101614.13;5001185;28;20090;-79
2022/08/06 00:32:00;;;;;;;4.93;1.08;;;14.50;99.90;;;13.25;100.00;101616.84;5000392;28;20017;-79
2022/08/06 00:34:25;;;;;;;;;;;14.60;99.90;;;13.11;100.00;101624.56;4999949;28;20130;-79
2022/08/06 00:36:58;;;;;;;7.60;1.27;;;14.40;99.90;;;13.11;100.00;101624.56;4998272;28;19993;-79
2022/08/06 00:39:24;;;;;;;4.40;0.70;;;14.40;99.90;;;13.07;100.00;101630.91;4996564;28;20438;-79
2022/08/06 00:41:50;;;;;;;9.18;1.20;;;14.40;99.90;;;13.08;100.00;101629.94;4980701;28;20061;-79
2022/08/06 00:44:16;;;;;;;2.33;0.60;;;14.30;99.90;;;13.07;100.00;101628.25;4997090;28;20121;-78
2022/08/06 00:46:42;;;;;;;8.00;0.90;;;14.30;99.90;;;13.02;100.00;101627.56;4998484;28;20042;-78
2022/08/06 00:49:11;;;;;;;5.95;1.27;;;14.20;99.90;;;12.99;100.00;101635.63;4997038;28;20026;-79
2022/08/06 00:51:37;;;;;;;6.53;1.08;;;14.20;99.90;;;12.90;100.00;101644.81;5012688;28;20583;-78
2022/08/06 00:54:03;;;;;;;6.25;1.00;;;14.10;99.90;;;12.83;100.00;101644.22;5012664;28;20523;-80
2022/08/06 00:56:28;;;;;;;2.45;0.68;;;14.00;99.90;;;12.71;100.00;101650.00;4982356;28;20042;-79
2022/08/06 00:58:54;;;;;;;4.63;1.02;;;14.00;99.90;;;12.69;100.00;101654.47;4997428;28;20113;-78
2022/08/06 01:01:20;;;;;;;;;;;14.00;99.90;;;12.54;100.00;101649.81;4998404;28;20058;-79
2022/08/06 01:03:46;;;;;;;6.90;1.02;;;13.80;99.90;;;12.45;100.00;101661.59;4996578;28;19941;-79
2022/08/06 01:06:12;;;;;;;;;;;13.80;99.90;;;12.34;100.00;101658.53;4996446;28;20058;-79
2022/08/06 01:08:40;;;;;;;8.13;1.13;;;13.60;99.90;;;12.30;100.00;101671.00;4997892;28;20374;-79
2022/08/06 01:11:06;;;;;;;3.58;0.70;;;13.60;99.90;;;12.29;100.00;101677.22;4996659;28;20079;-80
2022/08/06 01:13:32;;;;;;;6.35;1.13;;;13.50;99.90;;;12.26;100.00;101677.31;4995631;28;20035;-78
2022/08/06 01:16:10;;;;;;;;;;;13.50;99.90;;;12.14;100.00;101678.66;4996694;28;20045;-79
2022/08/06 01:19:32;;;;;;;4.53;0.82;;;13.40;99.90;;;12.08;100.00;101674.44;4994661;28;19921;-79
2022/08/06 01:22:13;;;;;;;5.07;0.80;;;13.40;99.90;;;12.04;100.00;101678.13;4982534;28;20046;-79
2022/08/06 01:25:05;;;;;;;4.28;0.80;;;13.30;99.90;;;12.00;100.00;101678.28;4996214;28;20030;-79
2022/08/06 01:27:52;;;;;;;9.25;1.10;;;13.20;99.90;;;11.99;100.00;101688.00;4998603;28;20038;-78
2022/08/06 01:30:23;;;;;;;4.97;0.95;;;13.20;99.90;;;11.99;100.00;101689.78;5014561;28;20026;-78
2022/08/06 01:32:57;;;;;;;10.55;1.15;;;13.20;99.90;;;12.01;100.00;101683.53;4996931;28;20544;-79
2022/08/06 01:35:37;;;;;;;9.93;1.58;;;13.20;99.90;;;12.04;100.00;101686.03;4995065;28;20030;-79
2022/08/06 01:38:25;;;;;;;6.20;0.90;;;13.20;99.90;;;12.02;100.00;101695.78;4996801;28;20026;-79
2022/08/06 01:41:00;;;;;;;11.73;1.23;;;13.20;99.90;;;11.98;100.00;101696.81;4995777;28;20407;-79
2022/08/06 01:43:27;;;;;;;18.45;1.50;;;13.20;99.90;;;11.98;100.00;101703.88;4995108;28;20026;-78
2022/08/06 01:46:02;;;;;;;16.33;1.98;;;13.10;99.90;;;11.95;100.00;101709.28;4994688;28;20537;-78
2022/08/06 01:48:30;;;;;;;6.95;1.70;;;13.10;99.90;;;11.91;100.00;101708.53;5011990;28;20038;-79
2022/08/06 01:51:03;;;;;;;7.22;1.63;;;13.10;99.90;;;11.88;100.00;101703.38;4995931;28;20034;-79
2022/08/06 01:53:34;;;;;;;17.02;2.25;;;13.00;99.90;;;11.83;100.00;101707.91;5011896;28;20037;-78
2022/08/06 01:56:08;;;;;;;13.82;1.80;;;13.00;99.90;;;11.82;100.00;101711.47;4995782;28;20046;-78
2022/08/06 01:58:39;;;;;;;13.02;1.52;;;13.00;99.90;;;11.82;100.00;101712.34;4979929;28;20026;-79
2022/08/06 02:01:11;;;;;;;9.43;1.90;;;13.00;99.90;;;11.79;100.00;101709.81;4997182;28;20034;-79
2022/08/06 02:03:51;;;;;;;21.88;2.22;;;13.00;99.90;;;11.79;100.00;101712.47;4993600;28;20026;-79
2022/08/06 02:06:37;;;;;;;10.55;2.25;;;12.90;99.90;;;11.78;100.00;101712.50;5010820;28;20035;-79
2022/08/06 02:09:11;;;;;;;10.80;2.30;;;12.90;99.90;;;11.77;100.00;101716.94;5011110;28;20056;-79
2022/08/06 02:11:39;;;;;;;8.10;2.35;;;12.90;99.90;;;11.76;100.00;101714.34;4994097;28;20034;-79
2022/08/06 02:14:07;;;;;;;13.10;2.72;;;12.90;99.90;;;11.74;100.00;101716.16;4994790;28;20487;-79
2022/08/06 02:16:41;;;;;;;7.30;2.45;;;12.90;99.90;;;11.70;100.00;101712.75;4993541;28;20854;-79
2022/08/06 02:19:11;;;;;;;9.15;2.45;;;12.90;99.90;;;11.72;100.00;101723.28;4993725;28;20037;-79
2022/08/06 02:21:43;;;;;;;11.25;2.88;;;12.90;99.90;;;11.70;100.00;101712.75;4993494;28;20030;-79
2022/08/06 02:24:11;;;;;;;10.25;2.78;;;12.90;99.90;;;11.68;100.00;101712.84;4994062;28;20034;-79
2022/08/06 02:26:40;;;;;;;13.95;2.90;;;12.80;99.90;;;11.68;100.00;101702.28;4993446;28;20089;-79
2022/08/06 02:29:15;;;;;;;10.93;2.50;;;12.80;99.90;;;11.67;100.00;101705.81;4992959;28;20030;-79
2022/08/06 02:31:43;;;;;;;6.53;2.90;;;12.80;99.90;;;11.64;100.00;101711.22;4991420;28;20026;-79
2022/08/06 02:34:09;;;;;;;11.07;3.10;;;12.80;99.90;;;11.62;100.00;101712.16;4978307;28;20505;-79
2022/08/06 02:36:56;;;;;;;13.18;3.80;;;12.80;99.90;;;11.61;100.00;101713.94;4993575;28;20034;-79
2022/08/06 02:39:34;;;;;;;8.57;3.50;;;12.70;99.90;;;11.60;100.00;101720.16;5009614;28;20038;-79
2022/08/06 02:42:15;;;;;;;17.85;3.67;;;12.70;99.90;;;11.59;100.00;101717.56;5008638;28;20105;-79
2022/08/06 02:45:05;;;;;;;12.98;3.35;;;12.70;99.90;;;11.54;100.00;101719.50;4994971;28;20037;-79
2022/08/06 02:47:49;;;;;;;21.65;4.38;;;12.70;99.90;;;11.50;100.00;101729.28;4993470;28;20089;-79
2022/08/06 02:50:21;;;;;;;18.10;3.92;;;12.70;99.90;;;11.46;100.00;101730.31;5007700;28;20684;-79
2022/08/06 02:52:55;;;;;;;23.10;4.20;;;12.60;99.90;;;11.44;100.00;101732.13;5008663;28;20041;-78
2022/08/06 02:55:28;;;;;;;15.45;4.10;;;12.60;99.90;;;11.41;100.00;101729.63;4993809;28;20027;-79
2022/08/06 02:58:12;;;;;;;11.93;3.80;;;12.60;99.90;;;11.37;100.00;101730.63;4978937;28;20034;-79
2022/08/06 03:00:42;;;;;;;12.52;3.33;;;12.60;99.90;;;11.36;100.00;101728.91;4993875;28;20101;-79
2022/08/06 03:03:12;;;;;;;9.38;3.70;;;12.60;99.90;;;11.35;100.00;101733.31;4978306;28;20041;-79
2022/08/06 03:05:47;;;;;;;15.05;3.20;;;12.60;99.90;;;11.34;100.00;101743.91;4994008;28;20121;-79
2022/08/06 03:08:26;;;;;;;10.38;2.80;;;12.50;99.90;;;11.36;100.00;101750.00;4993082;28;20495;-78
2022/08/06 03:10:54;;;;;;;10.95;3.22;;;12.60;99.90;;;11.35;100.00;101741.22;4994545;28;20026;-79
2022/08/06 03:13:22;;;;;;;14.13;3.58;;;12.50;99.90;;;11.35;100.00;101758.81;4993260;28;20026;-78
2022/08/06 03:15:53;;;;;;;21.60;4.88;;;12.60;99.90;;;11.37;100.00;101762.28;4992823;28;20061;-79
2022/08/06 03:18:21;;;;;;;12.95;3.53;;;12.60;99.90;;;11.38;100.00;101761.34;4992661;28;20120;-78
2022/08/06 03:20:48;;;;;;;14.10;3.72;;;12.50;99.90;;;11.38;100.00;101759.59;4992672;28;20038;-78
2022/08/06 03:23:15;;;;;;;14.38;3.20;;;12.60;99.90;;;11.38;100.00;101766.63;4992357;28;20089;-79
2022/08/06 03:25:45;;;;;;;10.00;3.58;;;12.60;99.90;;;11.38;100.00;101778.06;4993480;28;20129;-78
2022/08/06 03:28:13;;;;;;;17.95;4.50;;;12.50;99.90;;;11.37;100.00;101776.31;4994577;28;20289;-79
2022/08/06 03:30:40;;;;;;;17.08;4.20;;;12.50;99.90;;;11.34;100.00;101789.63;4994817;28;20041;-78
2022/08/06 03:33:15;;;;;;;15.90;3.63;;;12.50;99.90;;;11.34;100.00;101786.97;4997878;28;20038;-79
2022/08/06 03:35:42;;;;;;;10.82;3.38;;;12.50;99.90;;;11.32;100.00;101786.16;4998416;28;20034;-79
2022/08/06 03:38:13;;;;;;;13.27;3.65;;;12.50;99.90;;;11.30;100.00;101790.63;4998338;28;20549;-78
2022/08/06 03:40:43;;;;;;;13.15;3.40;;;12.40;99.90;;;11.28;100.00;101789.81;4998003;28;20042;-79
2022/08/06 03:43:10;;;;;;;10.32;3.53;;;12.40;99.90;;;11.27;100.00;101796.88;4981267;28;20034;-79
2022/08/06 03:45:45;;;;;;;19.48;3.40;;;12.40;99.90;;;11.26;100.00;101807.44;4981409;28;20031;-79
2022/08/06 03:48:16;;;;;;;13.75;3.58;;;12.40;99.90;;;11.26;100.00;101804.81;4997589;28;20030;-79
2022/08/06 03:50:48;;;;;;;11.80;3.45;;;12.40;99.90;;;11.27;100.00;101812.69;4997652;28;20657;-78
2022/08/06 03:53:22;;;;;;;13.05;3.65;;;12.40;99.90;;;11.29;100.00;101820.53;4996795;28;20030;-79
2022/08/06 03:55:55;;;;;;;8.00;3.22;;;12.50;99.90;;;11.33;100.00;101818.66;5013937;28;20026;-78
2022/08/06 03:58:22;;;;;;;10.27;3.35;;;12.50;99.90;;;11.36;100.00;101823.81;5014135;28;20034;-79
2022/08/06 04:00:59;;;;;;;22.23;3.47;;;12.50;99.90;;;11.39;100.00;101824.59;4995508;28;20046;-79
2022/08/06 04:03:26;;;;;;;8.60;3.30;;;12.60;99.90;;;11.46;100.00;101825.25;4996388;28;20057;-78
2022/08/06 04:05:54;;;;;;;11.60;2.75;;;12.50;99.90;;;11.51;100.00;101825.97;4997162;28;20502;-79
2022/08/06 04:08:25;;;;;;;8.15;2.70;;;12.60;99.90;;;11.54;100.00;101830.28;4995432;28;20029;-80
2022/08/06 04:10:52;;;;;;;12.15;3.58;;;12.60;99.90;;;11.60;100.00;101830.09;5010446;28;20107;-79
2022/08/06 04:13:22;;;;;;;12.20;3.13;;;12.70;99.90;;;11.64;100.00;101832.56;4995030;28;20049;-79
2022/08/06 04:15:52;;;;;;;6.85;3.10;;;12.70;99.90;;;11.70;100.00;101840.28;4994234;28;20038;-79
2022/08/06 04:18:33;;;;;;;14.88;3.83;;;12.90;99.90;;;11.97;100.00;101839.44;4994850;28;20030;-78
2022/08/06 04:21:04;;;;;;;8.63;3.03;;;13.80;99.90;;;13.59;100.00;101840.34;5009780;28;20030;-79
2022/08/06 04:23:33;;;;;;;9.90;3.13;;;15.50;99.90;;;15.91;100.00;101853.53;4995080;28;20026;-79
2022/08/06 04:26:04;;;;;;;9.50;2.25;;;17.30;99.90;;;18.24;100.00;101849.44;4979774;28;20057;-79
2022/08/06 04:28:34;;;;;;;7.82;1.95;;;19.10;99.90;;;20.26;87.17;101854.13;4996095;28;20381;-79
2022/08/06 04:31:03;;;;;;;9.35;1.63;;;20.60;99.90;;;21.87;73.90;101854.91;5010045;28;20027;-79
2022/08/06 04:33:32;;;;;;;5.28;1.77;;;21.90;99.90;;;23.09;66.41;101858.81;4995154;28;20038;-79
2022/08/06 04:36:04;;;;;;;9.07;1.20;;;22.90;99.90;;;24.27;63.08;101872.22;4995517;28;20678;-79
2022/08/06 04:38:32;;;;;;;3.60;1.02;;;23.90;99.90;;;25.36;58.95;101876.03;4995875;28;20033;-79
2022/08/06 04:41:00;;;;;;;3.67;1.15;;;24.70;99.90;;;26.32;55.99;101885.06;4994606;28;20030;-79
2022/08/06 04:43:27;;;;;;;11.20;1.20;;;25.50;99.90;;;27.19;53.98;101889.25;4977382;28;20511;-79
2022/08/06 04:45:53;;;;;;;4.97;1.15;;;26.00;99.90;;;27.86;51.60;101907.81;4994728;28;20031;-79
2022/08/06 04:48:23;;;;;;;3.35;0.82;;;26.70;99.90;;;28.71;49.59;101921.63;4994127;28;20026;-79
2022/08/06 04:50:49;;;;;;;6.57;1.20;;;27.20;98.70;;;29.24;48.43;101920.53;4995901;28;20034;-80
2022/08/06 04:53:18;;;;;;;3.92;0.93;;;27.70;97.90;;;30.13;46.60;101934.34;4993956;28;20026;-79
2022/08/06 04:55:46;;;;;;;4.28;0.98;;;28.00;96.10;;;30.07;45.88;101926.06;4993778;28;20137;-79
2022/08/06 04:58:16;;;;;;;2.25;0.85;;;28.40;95.70;;;30.88;44.33;101945.94;4995795;28;20089;-78
2022/08/06 05:00:47;;;;;;;8.63;1.00;;;28.60;94.10;;;31.17;43.23;101938.00;4993585;28;20092;-80
2022/08/06 05:03:14;;;;;;;3.92;0.85;;;29.00;95.00;;;31.90;42.20;101952.13;4993094;28;20121;-79
2022/08/06 05:06:09;;;;;;;4.45;0.70;;;29.20;92.50;;;31.76;39.89;101955.69;4992661;28;20042;-79
2022/08/06 05:08:41;;;;;;;3.70;1.00;;;29.40;92.20;;;32.39;40.39;101968.06;4994187;28;20037;-78
2022/08/06 05:11:28;;;;;;;5.75;0.85;;;29.60;92.50;;;32.88;39.03;101986.66;4994229;28;20037;-79
2022/08/06 05:14:01;;;;;;;6.10;0.82;;;30.00;92.10;;;33.75;38.48;101992.34;4992264;28;20087;-78
2022/08/06 05:16:32;;;;;;;3.15;0.80;;;30.30;91.90;;;34.06;37.96;101995.59;4993635;28;20125;-79
2022/08/06 05:19:05;;;;;;;6.55;0.73;;;30.50;90.90;;;34.33;37.13;102005.94;4992117;28;20454;-79
2022/08/06 05:21:36;;;;;;;5.15;0.95;;;30.60;89.80;;;33.90;36.80;102009.53;4992109;28;20120;-78
2022/08/06 05:24:06;;;;;;;3.35;0.80;;;30.30;89.60;;;33.51;37.53;102016.22;4993195;28;20407;-79
2022/08/06 05:26:34;;;;;;;8.82;0.90;;;30.10;90.00;;;33.37;37.39;102028.88;4993176;28;20034;-78
2022/08/06 05:29:00;;;;;;;4.00;0.73;;;29.80;90.30;;;33.03;37.57;102034.91;4991093;28;20121;-79
2022/08/06 05:31:34;;;;;;;2.72;0.77;;;29.70;90.50;;;33.45;36.34;102039.66;4991538;28;20057;-78
2022/08/06 05:34:03;;;;;;;5.22;0.95;;;29.90;90.80;;;34.13;36.31;102055.81;4990624;28;20053;-79
2022/08/06 05:36:30;;;;;;;3.00;0.73;;;30.00;88.40;;;33.88;35.90;102056.16;4993134;28;20041;-78
2022/08/06 05:38:56;;;;;;;4.72;0.93;;;30.10;89.80;;;34.29;35.55;102068.34;4991698;28;20602;-78
2022/08/06 05:41:29;;;;;;;3.35;0.60;;;30.40;89.30;;;34.70;34.45;102070.41;4992974;28;20395;-78
2022/08/06 05:43:56;;;;;;;5.80;0.90;;;30.40;88.40;;;34.37;35.39;102067.38;5007558;28;20049;-78
2022/08/06 05:46:23;;;;;;;4.10;0.75;;;30.50;88.80;;;34.28;35.52;102080.34;5007051;28;20045;-79
2022/08/06 05:49:28;;;;;;;6.40;0.80;;;30.30;87.70;;;33.61;34.75;102086.97;4992595;28;20122;-79
2022/08/06 05:52:26;;;;;;;6.28;0.90;;;29.60;88.40;;;32.39;36.82;102088.00;4974072;28;20038;-79
2022/08/06 05:55:36;;;;;;;4.15;0.80;;;29.10;89.40;;;32.39;37.23;102092.59;4989596;28;20023;-79
2022/08/06 05:58:28;;;;;;;4.32;0.77;;;29.20;90.30;;;32.83;37.38;102091.88;4959409;28;20042;-77
2022/08/06 06:00:57;;;;;;;4.15;1.10;;;29.30;89.50;;;32.69;36.99;102093.56;4961020;28;20562;-77
2022/08/06 06:03:23;;;;;;;4.53;0.90;;;29.30;90.10;;;32.75;37.01;102092.00;4989274;28;20066;-76
2022/08/06 06:05:50;;;;;;;4.28;0.68;;;29.30;90.40;;;32.72;37.41;102097.78;4988100;28;20040;-76
2022/08/06 06:08:18;;;;;;;4.78;0.75;;;29.10;90.00;;;31.99;37.89;102100.06;4989230;28;20286;-77
2022/08/06 06:10:48;;;;;;;5.63;0.75;;;29.20;91.20;;;32.55;37.60;102099.81;4988494;28;20023;-77
2022/08/06 06:13:15;;;;;;;6.57;0.98;;;29.60;90.80;;;33.35;36.94;102111.97;5004878;28;20106;-78
2022/08/06 06:16:09;;;;;;;7.20;0.60;;;29.90;90.00;;;33.09;35.63;102107.88;4989709;28;20056;-78
2022/08/06 06:19:05;;;;;;;3.78;0.52;;;29.90;90.60;;;33.10;36.78;102113.09;4990109;28;20034;-78
2022/08/06 06:21:58;;;;;;;4.65;0.80;;;30.10;89.70;;;33.12;36.63;102118.38;4990028;28;20132;-78
2022/08/06 06:24:48;;;;;;;3.90;0.70;;;30.10;89.20;;;32.54;36.65;102112.59;5007492;28;20034;-78
2022/08/06 06:27:35;;;;;;;7.10;0.70;;;29.80;90.00;;;31.71;38.67;102110.53;4990940;28;20590;-78
2022/08/06 06:30:02;;;;;;;;;;;29.60;88.00;;;31.21;38.30;102110.72;4990905;28;20046;-78
2022/08/06 06:32:56;;;;;;;3.00;0.68;;;29.30;88.50;;;30.73;39.20;102109.75;4990488;28;19917;-78
2022/08/06 06:35:53;;;;;;;6.93;0.65;;;29.30;90.20;;;30.71;39.31;102106.34;5005930;28;20053;-78
2022/08/06 06:38:51;;;;;;;4.63;0.73;;;29.60;89.60;;;31.08;38.72;102105.00;5006054;28;20121;-78
2022/08/06 06:41:33;;;;;;;7.78;0.90;;;29.50;88.60;;;30.64;39.67;102114.34;4990387;28;20491;-79
2022/08/06 06:44:05;;;;;;;9.80;0.80;;;29.60;88.60;;;30.99;39.25;102120.44;4989167;28;20038;-77
2022/08/06 06:46:54;;;;;;;3.60;0.88;;;29.70;87.70;;;30.88;38.86;102126.25;4988820;28;20403;-78
2022/08/06 06:49:53;;;;;;;2.92;0.68;;;30.00;86.90;;;31.30;37.89;102136.03;4989740;28;20045;-78
2022/08/06 06:52:29;;;;;;;1.83;0.50;;;30.40;87.90;;;31.85;38.30;102142.47;5005305;28;20036;-78
2022/08/06 06:55:11;;;;;;;7.65;0.70;;;30.80;86.30;;;31.91;37.95;102147.22;4989094;28;20188;-78
2022/08/06 06:57:47;;;;;;;6.68;0.70;;;30.80;85.00;;;31.54;38.46;102145.19;4989799;28;20030;-79
2022/08/06 07:00:13;;;;;;;3.15;0.50;;;30.60;82.60;;;31.03;38.24;102140.00;4990782;28;20767;-79
2022/08/06 07:02:41;;;;;;;3.92;0.60;;;30.30;84.20;;;30.56;39.28;102132.53;4992673;28;20403;-79
2022/08/06 07:05:13;;;;;;;5.20;0.88;;;30.20;85.50;;;30.48;39.64;102143.41;5007680;28;20549;-80
2022/08/06 07:07:42;;;;;;;3.22;0.68;;;30.30;86.10;;;30.97;39.41;102144.28;4987448;28;20625;-78
2022/08/06 07:10:19;;;;;;;4.32;0.82;;;30.50;85.70;;;31.10;39.08;102145.59;4991000;28;20022;-77
2022/08/06 07:12:45;;;;;;;1.98;0.40;;;30.70;83.60;;;30.69;38.57;102149.16;4991941;28;20479;-78
2022/08/06 07:15:14;;;;;;;2.30;0.60;;;30.40;82.30;;;30.24;39.20;102153.19;4991617;28;20049;-78
2022/08/06 07:17:47;;;;;;;10.75;0.73;;;30.30;84.30;;;30.46;39.54;102151.72;4990721;28;20046;-78
2022/08/06 07:20:14;;;;;;;3.08;0.63;;;30.10;82.10;;;29.71;39.11;102154.38;5007809;28;20026;-79
2022/08/06 07:22:45;;;;;;;4.70;0.75;;;29.90;83.70;;;29.24;40.07;102145.63;4991021;28;20031;-78
2022/08/06 07:25:14;;;;;;;8.02;0.80;;;29.80;83.30;;;29.49;40.10;102156.63;5005402;28;20042;-78
2022/08/06 07:27:45;;;;;;;2.38;0.47;;;29.70;85.00;;;29.14;40.44;102150.31;4972192;28;20029;-77
2022/08/06 07:30:18;;;;;;;6.30;0.52;;;29.50;85.20;;;28.60;41.11;102152.25;4988859;28;20037;-78
2022/08/06 07:32:46;;;;;;;5.57;0.95;;;29.30;84.80;;;28.68;41.59;102151.44;4990268;28;20030;-79
2022/08/06 07:35:13;;;;;;;2.38;0.60;;;28.60;84.30;;;27.00;43.45;102146.13;4974089;28;20030;-78
2022/08/06 07:37:59;;;;;;;1.65;0.50;;;28.10;87.20;;;27.35;44.35;102148.19;4988870;28;20704;-76
2022/08/06 07:40:37;;;;;;;4.45;0.60;;;28.30;90.10;;;28.11;43.09;102151.72;4989524;28;20403;-76
2022/08/06 07:43:24;;;;;;;3.97;0.60;;;28.60;89.40;;;28.37;41.89;102154.53;4989310;28;21324;-78
2022/08/06 07:45:51;;;;;;;;;;;28.70;87.80;;;27.35;42.68;102153.59;4991535;28;20034;-76
2022/08/06 07:48:23;;;;;;;4.57;0.63;;;28.10;88.30;;;26.93;44.72;102151.25;4993531;28;19910;-79
2022/08/06 07:50:51;;;;;;;4.78;0.90;;;27.70;89.50;;;26.55;45.55;102150.25;4992837;28;20038;-79
2022/08/06 07:53:19;;;;;;;4.97;0.70;;;27.30;90.60;;;26.31;46.25;102158.75;4994618;28;20038;-80
2022/08/06 07:55:47;;;;;;;4.35;0.80;;;27.20;90.90;;;26.94;45.13;102149.41;4978882;28;20030;-81
2022/08/06 07:58:17;;;;;;;4.35;0.60;;;27.50;91.20;;;27.13;45.20;102154.78;4995160;28;20395;-80
2022/08/06 08:00:44;;;;;;;6.65;0.60;;;27.50;90.40;;;26.33;45.50;102151.38;4991687;28;20058;-81
2022/08/06 08:08:48;;;;;;;5.70;1.08;;;26.60;91.90;;;26.48;46.43;102142.84;4994213;28;20061;-81
2022/08/06 08:11:16;;;;;;;5.20;0.43;;;26.90;93.00;;;26.90;46.28;102154.22;4992521;28;20069;-82
2022/08/06 08:13:47;;;;;;;6.82;0.70;;;27.40;91.30;;;27.01;45.83;102155.94;4992963;28;20026;-81
2022/08/06 08:16:15;;;;;;;3.63;0.50;;;26.90;89.50;;;25.54;47.67;102149.41;4992003;28;20022;-80
2022/08/06 08:18:41;;;;;;;5.50;0.63;;;26.60;92.40;;;25.44;48.80;102153.88;4991952;28;20053;-80
2022/08/06 08:21:09;;;;;;;1.35;0.30;;;25.80;90.30;;;23.84;49.92;102143.00;4995074;28;20057;-80
2022/08/06 08:23:38;;;;;;;3.10;0.50;;;24.50;90.70;;;22.68;51.49;102148.41;4994368;28;20076;-81
2022/08/06 08:26:04;;;;;;;5.40;0.50;;;23.90;92.70;;;22.87;51.96;102155.03;4995126;28;20037;-81
2022/08/06 08:28:31;;;;;;;2.70;0.50;;;23.60;93.90;;;22.58;52.72;102150.06;4995207;28;20388;-80
2022/08/06 08:31:01;;;;;;;1.70;0.45;;;23.40;93.60;;;22.81;52.00;102153.69;4995400;28;20022;-80
2022/08/06 08:33:36;;;;;;;7.97;0.68;;;23.30;94.60;;;22.53;53.80;102142.34;4994047;28;20030;-79
2022/08/06 08:36:02;;;;;;;3.97;0.50;;;23.50;97.50;;;23.65;55.03;102164.25;4995392;28;20031;-80
2022/08/06 08:38:36;;;;;;;2.85;0.65;;;24.20;96.10;;;24.94;51.21;102167.16;4994213;28;20126;-80
2022/08/06 08:41:18;;;;;;;8.02;0.70;;;25.20;95.10;;;26.24;48.74;102167.53;4991522;28;20085;-81
2022/08/06 08:43:52;;;;;;;8.65;0.70;;;26.30;93.80;;;27.21;46.76;102159.44;4992632;28;20041;-80
2022/08/06 08:46:22;;;;;;;14.45;1.23;;;27.20;92.50;;;27.96;45.46;102168.47;4993693;28;20054;-81
2022/08/06 08:48:48;;;;;;;7.40;0.70;;;27.70;91.90;;;28.10;44.41;102164.41;4991169;28;20034;-81
2022/08/06 08:51:15;;;;;;;8.43;0.75;;;28.00;91.70;;;28.09;44.26;102183.50;4992214;28;20034;-79
2022/08/06 08:53:52;;;;;;;5.75;0.70;;;28.20;90.20;;;28.10;43.61;102169.81;4992108;28;20438;-81
2022/08/06 08:56:18;;;;;;;8.25;0.60;;;27.80;88.70;;;26.73;44.95;102169.31;4977702;28;20115;-80
2022/08/06 08:58:45;;;;;;;7.97;0.70;;;27.20;90.00;;;25.92;46.75;102177.56;4994381;28;20037;-81
2022/08/06 09:01:15;;;;;;;9.40;0.55;;;26.30;89.80;;;24.70;48.44;102180.88;5009813;28;20473;-80
2022/08/06 09:03:41;;;;;;;7.10;0.73;;;25.50;91.30;;;24.03;49.31;102169.28;4991712;28;20081;-80
2022/08/06 09:06:08;;;;;;;11.98;1.08;;;24.60;91.60;;;23.00;51.54;102174.69;4994801;28;20027;-80
2022/08/06 09:08:36;;;;;;;13.05;0.77;;;23.70;92.00;;;22.02;52.85;102180.06;4993791;28;20118;-81
2022/08/06 09:11:08;;;;;;;8.85;0.70;;;23.00;92.70;;;21.47;54.11;102173.28;5011894;23;20046;-81
2022/08/06 09:13:37;;;;;;;3.55;0.60;;;22.60;95.60;;;21.47;56.21;102170.59;5011813;28;20050;-83
2022/08/06 09:16:13;;;;;;;2.58;0.60;;;22.60;95.20;;;21.90;55.16;102173.78;5011523;28;20022;-81
2022/08/06 09:18:39;;;;;;;4.03;0.68;;;22.80;95.20;;;22.30;54.25;102167.34;5012653;28;20076;-81
2022/08/06 09:21:05;;;;;;;1.08;0.35;;;23.00;94.40;;;22.57;53.39;102161.78;5021765;28;20029;-82
2022/08/06 09:23:31;;;;;;;12.10;0.70;;;23.20;93.80;;;22.96;52.30;102159.75;5024102;28;20048;-82
2022/08/06 09:26:05;;;;;;;2.00;0.50;;;23.50;93.80;;;23.14;50.84;102157.47;5025172;28;20474;-82
2022/08/06 09:28:37;;;;;;;5.45;0.40;;;23.70;93.10;;;23.54;50.73;102159.72;5032744;28;20043;-82
2022/08/06 09:31:14;;;;;;;5.18;0.60;;;23.90;93.50;;;23.50;50.82;102160.97;5026894;28;20033;-82
2022/08/06 09:34:21;;;;;;;4.47;0.57;;;24.00;92.60;;;23.01;50.63;102157.56;5042044;28;20033;-82
2022/08/06 09:36:49;;;;;;;6.85;0.65;;;23.60;90.90;;;22.42;49.47;102161.09;4985592;28;20046;-81
2022/08/06 09:39:15;;;;;;;5.53;0.70;;;23.40;91.90;;;22.35;50.25;102150.91;4974171;28;20042;-81
2022/08/06 09:41:51;;;;;;;3.15;0.60;;;23.20;91.30;;;22.32;50.12;102155.53;5000785;28;20053;-81
2022/08/06 09:44:17;;;;;;;2.65;0.60;;;23.10;91.10;;;22.33;49.78;102142.97;5044519;28;20025;-81
2022/08/06 09:46:53;;;;;;;5.43;0.85;;;23.20;91.90;;;22.59;49.80;102146.41;5036053;28;20061;-81
2022/08/06 09:49:19;;;;;;;1.73;0.40;;;23.20;90.50;;;22.34;48.66;102147.38;5013451;28;20073;-79
2022/08/06 09:51:45;;;;;;;;;;;23.20;91.50;;;21.81;48.27;102147.59;5032971;28;20069;-81
2022/08/06 09:54:15;;;;;;;3.22;0.63;;;22.80;90.00;;;21.60;49.04;102151.84;5053461;28;19928;-82
2022/08/06 09:56:48;;;;;;;4.13;0.73;;;22.70;92.80;;;21.90;50.94;102156.84;5029093;28;20040;-81
2022/08/06 09:59:14;;;;;;;4.63;0.70;;;22.70;91.70;;;21.93;49.70;102148.56;5009013;28;20022;-81
2022/08/06 10:01:51;;;;;;;4.13;0.70;;;22.90;91.40;;;22.40;48.89;102154.13;5029787;28;20547;-82
2022/08/06 10:04:32;;;;;;;2.80;0.60;;;23.10;90.40;;;22.66;47.25;102160.22;5030075;28;20666;-82
2022/08/06 10:07:03;;;;;;;1.70;0.50;;;23.10;91.50;;;22.35;49.28;102164.34;5043835;28;20033;-80
2022/08/06 10:09:50;;;;;;;4.57;0.65;;;23.00;90.30;;;22.27;48.12;102157.72;5024941;23;20571;-82
2022/08/06 10:12:30;;;;;;;4.50;0.63;;;23.10;91.30;;;22.39;49.07;102153.25;4986560;28;20556;-81
2022/08/06 10:14:59;;;;;;;3.15;0.50;;;23.00;89.90;;;21.94;47.66;102160.13;4983735;28;20034;-82
2022/08/06 10:17:27;;;;;;;3.33;0.90;;;22.60;89.00;;;21.39;48.21;102156.84;4950060;28;20039;-82
2022/08/06 10:20:15;;;;;;;3.85;0.60;;;22.20;91.00;;;21.01;50.20;102160.34;4972947;28;20031;-82
2022/08/06 10:22:57;;;;;;;2.00;0.80;;;21.80;91.60;;;20.52;51.20;102161.78;4987133;28;20030;-83
2022/08/06 10:25:25;;;;;;;3.42;0.80;;;21.50;91.60;;;20.22;51.00;102164.66;4967332;28;20442;-82
2022/08/06 10:28:04;;;;;;;4.18;0.93;;;21.10;92.20;;;19.78;52.71;102166.50;4983457;28;20022;-81
2022/08/06 10:35:49;;;;;;;2.65;0.60;;;21.50;93.30;;;21.22;49.19;102155.34;5023244;28;20208;-84
2022/08/06 10:39:08;;;;;;;5.05;0.70;;;22.10;92.40;;;22.03;48.03;102164.81;4966445;28;20047;-82
2022/08/06 10:44:37;;;;;;;5.65;0.90;;;21.90;90.90;;;20.62;48.64;102149.53;4934794;28;20043;-85
2022/08/06 10:47:58;;;;;;;6.10;0.55;;;21.70;91.30;;;20.77;49.62;102152.16;4928098;28;20051;-85